Time;durP1;ratioP1;P1;durP2;ratioP2;P2;SDS_P1;SDS_P2;PMS_P1;PMS_P2;Temp;Humidity;BMP_temperature;BMP_pressure;BME280_temperature;BME280_humidity;BME280_pressure;Samples;Min_cycle;Max_cycle;Signal;HPM_P1;HPM_P2
2023/01/02 00:01:31;;;;;;;8.18;2.17;;;;;;;;;;5012571;28;20232;-95
2023/01/02 00:03:58;;;;;;;6.50;2.25;;;;;;;;;;5015619;28;20228;-94
2023/01/02 00:06:26;;;;;;;9.82;2.53;;;;;;;;;;5015764;28;20224;-95
2023/01/02 00:08:54;;;;;;;7.90;2.55;;;;;;;;;;5015621;28;20238;-92
2023/01/02 00:11:22;;;;;;;8.00;2.55;;;;;;;;;;5015318;28;20217;-95
2023/01/02 00:13:49;;;;;;;7.20;2.30;;;;;;;;;;5016291;28;20243;-95
2023/01/02 00:16:16;;;;;;;7.82;2.63;;;;;;;;;;5012894;28;20220;-95
2023/01/02 00:18:44;;;;;;;6.78;2.40;;;;;;;;;;5009189;28;20262;-94
2023/01/02 00:21:11;;;;;;;6.90;2.35;;;;;;;;;;5016544;28;20189;-93
2023/01/02 00:23:38;;;;;;;5.40;2.53;;;;;;;;;;5009682;28;20259;-94
2023/01/02 00:26:07;;;;;;;8.68;2.95;;;;;;;;;;5011610;28;20249;-95
2023/01/02 00:28:36;;;;;;;4.13;2.10;;;;;;;;;;5009066;28;20281;-94
2023/01/02 00:31:06;;;;;;;6.18;2.50;;;;;;;;;;5016209;28;20228;-95
2023/01/02 00:33:33;;;;;;;9.55;2.53;;;;;;;;;;5015071;28;20237;-95
2023/01/02 00:36:03;;;;;;;8.82;2.53;;;;;;;;;;5015211;28;20295;-94
2023/01/02 00:38:31;;;;;;;6.88;2.30;;;;;;;;;;5015590;28;20216;-95
2023/01/02 00:40:59;;;;;;;8.75;2.88;;;;;;;;;;5010685;28;20291;-94
2023/01/02 00:43:27;;;;;;;5.85;2.60;;;;;;;;;;5013128;28;20217;-94
2023/01/02 00:45:55;;;;;;;6.63;2.30;;;;;;;;;;5007449;28;20201;-95
2023/01/02 00:48:22;;;;;;;8.05;2.75;;;;;;;;;;5013502;28;20255;-94
2023/01/02 00:50:50;;;;;;;6.63;2.30;;;;;;;;;;5010482;28;20256;-94
2023/01/02 00:53:17;;;;;;;11.32;2.60;;;;;;;;;;5010005;28;20260;-94
2023/01/02 00:55:45;;;;;;;8.40;2.63;;;;;;;;;;5009023;28;20262;-94
2023/01/02 00:58:13;;;;;;;8.55;2.83;;;;;;;;;;5006055;28;20217;-94
2023/01/02 01:00:41;;;;;;;6.60;2.45;;;;;;;;;;5009984;28;20247;-94
2023/01/02 01:03:09;;;;;;;7.85;2.50;;;;;;;;;;5008466;28;20247;-95
2023/01/02 01:05:39;;;;;;;8.02;2.50;;;;;;;;;;5010199;28;20206;-94
2023/01/02 01:08:06;;;;;;;6.65;2.60;;;;;;;;;;5013539;28;20209;-94
2023/01/02 01:10:33;;;;;;;7.80;2.22;;;;;;;;;;5008400;28;20230;-94
2023/01/02 01:13:01;;;;;;;5.45;2.30;;;;;;;;;;5007739;28;20192;-95
2023/01/02 01:15:28;;;;;;;9.32;2.60;;;;;;;;;;5008241;28;20208;-94
2023/01/02 01:17:57;;;;;;;5.45;2.03;;;;;;;;;;5009472;28;20256;-95
2023/01/02 01:20:26;;;;;;;5.50;2.25;;;;;;;;;;5008206;28;20201;-95
2023/01/02 01:22:53;;;;;;;8.68;2.45;;;;;;;;;;5009300;28;20213;-95
2023/01/02 01:25:20;;;;;;;6.68;2.55;;;;;;;;;;5012519;28;20244;-93
2023/01/02 01:27:48;;;;;;;7.13;2.50;;;;;;;;;;5005383;28;20200;-95
2023/01/02 01:30:15;;;;;;;5.90;2.30;;;;;;;;;;5008264;28;20223;-94
2023/01/02 01:32:42;;;;;;;7.00;2.78;;;;;;;;;;5012483;28;20211;-95
2023/01/02 01:35:11;;;;;;;8.30;2.53;;;;;;;;;;5002663;28;20197;-95
2023/01/02 01:37:39;;;;;;;6.60;2.40;;;;;;;;;;5013522;28;20197;-94
2023/01/02 01:40:07;;;;;;;10.38;2.60;;;;;;;;;;5005872;28;20196;-96
2023/01/02 01:42:34;;;;;;;8.75;2.58;;;;;;;;;;5017961;28;20205;-94
2023/01/02 01:45:02;;;;;;;6.22;2.42;;;;;;;;;;5006184;28;20212;-94
2023/01/02 01:47:36;;;;;;;6.07;2.10;;;;;;;;;;5004114;28;20247;-94
2023/01/02 01:50:08;;;;;;;9.77;2.55;;;;;;;;;;5005296;28;20208;-95
2023/01/02 01:52:38;;;;;;;12.25;2.53;;;;;;;;;;5013882;28;20244;-95
2023/01/02 01:55:08;;;;;;;8.38;2.30;;;;;;;;;;5010913;28;20225;-94
2023/01/02 01:57:38;;;;;;;7.78;2.72;;;;;;;;;;5008922;28;20285;-95
2023/01/02 02:00:07;;;;;;;5.85;2.10;;;;;;;;;;5009331;28;20243;-93
2023/01/02 02:02:34;;;;;;;10.68;2.30;;;;;;;;;;5010243;28;20206;-93
2023/01/02 02:05:03;;;;;;;9.38;2.20;;;;;;;;;;5012292;28;20303;-94
2023/01/02 02:07:31;;;;;;;10.65;2.90;;;;;;;;;;5008163;28;20264;-95
2023/01/02 02:10:03;;;;;;;5.60;2.53;;;;;;;;;;5014735;28;20216;-96
2023/01/02 02:12:31;;;;;;;10.32;2.58;;;;;;;;;;5013027;28;20471;-95
2023/01/02 02:14:58;;;;;;;7.10;2.25;;;;;;;;;;5011336;28;20216;-95
2023/01/02 02:17:32;;;;;;;7.72;2.47;;;;;;;;;;5010914;28;20201;-93
2023/01/02 02:20:05;;;;;;;5.10;2.30;;;;;;;;;;5014052;28;20199;-95
2023/01/02 02:22:36;;;;;;;11.20;2.47;;;;;;;;;;5010075;28;20251;-94
2023/01/02 02:25:36;;;;;;;8.02;2.30;;;;;;;;;;5010552;28;20249;-95
2023/01/02 02:28:19;;;;;;;8.50;2.35;;;;;;;;;;4948995;28;20215;-95
2023/01/02 02:30:50;;;;;;;5.00;2.22;;;;;;;;;;4941724;29;20284;-95
2023/01/02 02:33:25;;;;;;;7.65;2.42;;;;;;;;;;4987208;28;20216;-95
2023/01/02 02:35:59;;;;;;;9.18;2.38;;;;;;;;;;5009222;28;20273;-95
2023/01/02 02:38:33;;;;;;;10.43;2.65;;;;;;;;;;5011216;28;20233;-95
2023/01/02 02:41:05;;;;;;;7.57;2.28;;;;;;;;;;5011563;28;20197;-95
2023/01/02 02:43:39;;;;;;;7.53;2.28;;;;;;;;;;5013146;28;20225;-94
2023/01/02 02:46:09;;;;;;;7.45;2.60;;;;;;;;;;5003813;28;20215;-95
2023/01/02 02:48:40;;;;;;;8.90;2.70;;;;;;;;;;5010784;28;20261;-94
2023/01/02 02:51:09;;;;;;;6.40;2.50;;;;;;;;;;5008883;28;20227;-93
2023/01/02 02:53:41;;;;;;;8.57;2.63;;;;;;;;;;5011910;28;20214;-95
2023/01/02 02:56:10;;;;;;;8.60;2.47;;;;;;;;;;5015500;28;20208;-95
2023/01/02 02:58:38;;;;;;;9.10;2.50;;;;;;;;;;5016307;28;20297;-95
2023/01/02 03:01:07;;;;;;;6.60;2.63;;;;;;;;;;5009764;28;20209;-94
2023/01/02 03:03:35;;;;;;;9.85;2.40;;;;;;;;;;5010024;28;20279;-94
2023/01/02 03:06:18;;;;;;;5.43;2.45;;;;;;;;;;5012338;28;20212;-94
2023/01/02 03:08:47;;;;;;;9.80;2.70;;;;;;;;;;5001433;28;20297;-94
2023/01/02 03:11:15;;;;;;;7.25;2.72;;;;;;;;;;5011764;28;20260;-94
2023/01/02 03:13:48;;;;;;;10.82;3.05;;;;;;;;;;5015898;28;20197;-94
2023/01/02 03:16:20;;;;;;;12.68;2.67;;;;;;;;;;5015171;28;20205;-94
2023/01/02 03:18:53;;;;;;;9.02;2.22;;;;;;;;;;5011023;28;20209;-94
2023/01/02 03:21:22;;;;;;;6.15;2.50;;;;;;;;;;5014418;28;20239;-94
2023/01/02 03:23:50;;;;;;;5.70;2.20;;;;;;;;;;5013585;28;20221;-94
2023/01/02 03:26:18;;;;;;;5.93;2.10;;;;;;;;;;5008938;28;20223;-94
2023/01/02 03:28:47;;;;;;;6.05;2.10;;;;;;;;;;5010862;28;20226;-95
2023/01/02 03:31:18;;;;;;;9.25;2.65;;;;;;;;;;5011319;28;20244;-94
2023/01/02 03:33:47;;;;;;;7.63;2.60;;;;;;;;;;5011731;28;20208;-94
2023/01/02 03:36:17;;;;;;;6.82;2.20;;;;;;;;;;5010636;28;20232;-94
2023/01/02 03:38:47;;;;;;;5.95;2.30;;;;;;;;;;5015521;28;20217;-94
2023/01/02 03:41:17;;;;;;;6.88;2.33;;;;;;;;;;5012868;28;20216;-94
2023/01/02 03:43:46;;;;;;;7.85;3.00;;;;;;;;;;5007476;28;20236;-95
2023/01/02 03:46:16;;;;;;;7.35;2.33;;;;;;;;;;5014894;28;20312;-94
2023/01/02 03:48:46;;;;;;;8.07;2.10;;;;;;;;;;5014975;28;20221;-94
2023/01/02 03:51:14;;;;;;;14.40;2.95;;;;;;;;;;5008200;28;20189;-94
2023/01/02 03:53:42;;;;;;;7.90;2.75;;;;;;;;;;5008163;28;20244;-94
2023/01/02 03:56:16;;;;;;;6.57;2.70;;;;;;;;;;5012288;28;20193;-94
2023/01/02 03:58:47;;;;;;;7.28;2.45;;;;;;;;;;5014335;28;20216;-94
2023/01/02 04:01:18;;;;;;;7.95;2.65;;;;;;;;;;5019659;28;20188;-94
2023/01/02 04:03:48;;;;;;;8.35;2.50;;;;;;;;;;5013905;28;20200;-94
2023/01/02 04:06:16;;;;;;;7.43;2.33;;;;;;;;;;5007791;28;20279;-94
2023/01/02 04:08:48;;;;;;;10.93;2.88;;;;;;;;;;5006767;28;20228;-94
2023/01/02 04:11:16;;;;;;;7.07;2.42;;;;;;;;;;5003529;28;20292;-95
2023/01/02 04:13:46;;;;;;;9.30;2.33;;;;;;;;;;5017367;28;20275;-93
2023/01/02 04:16:16;;;;;;;8.23;2.72;;;;;;;;;;5011865;28;20232;-93
2023/01/02 04:18:45;;;;;;;6.43;2.20;;;;;;;;;;5015890;28;20251;-92
2023/01/02 04:21:14;;;;;;;7.93;2.00;;;;;;;;;;5013815;28;20238;-93
2023/01/02 04:23:43;;;;;;;9.25;2.45;;;;;;;;;;5008299;28;20284;-93
2023/01/02 04:26:13;;;;;;;9.88;2.90;;;;;;;;;;5011426;28;20224;-93
2023/01/02 04:28:41;;;;;;;6.95;2.15;;;;;;;;;;5008574;28;20204;-94
2023/01/02 04:31:10;;;;;;;11.32;2.45;;;;;;;;;;5007411;28;20256;-93
2023/01/02 04:33:39;;;;;;;9.05;2.50;;;;;;;;;;5008941;28;20263;-94
2023/01/02 04:36:10;;;;;;;6.63;2.40;;;;;;;;;;5004615;28;20244;-93
2023/01/02 04:38:37;;;;;;;7.38;2.90;;;;;;;;;;5011273;28;20208;-95
2023/01/02 04:41:05;;;;;;;7.32;2.65;;;;;;;;;;5014118;28;20205;-94
2023/01/02 04:43:34;;;;;;;8.25;2.30;;;;;;;;;;5006161;28;20227;-95
2023/01/02 04:46:01;;;;;;;10.13;2.55;;;;;;;;;;5013116;28;20224;-94
2023/01/02 04:48:28;;;;;;;7.68;2.30;;;;;;;;;;5012250;28;20204;-94
2023/01/02 04:50:56;;;;;;;9.70;2.70;;;;;;;;;;5008713;28;20225;-95
2023/01/02 04:53:23;;;;;;;11.45;2.72;;;;;;;;;;5007826;28;20229;-93
2023/01/02 04:55:55;;;;;;;10.18;3.00;;;;;;;;;;5012409;28;20212;-93
2023/01/02 04:58:22;;;;;;;8.38;2.30;;;;;;;;;;5009346;28;20213;-94
2023/01/02 05:00:51;;;;;;;7.50;2.35;;;;;;;;;;5008255;28;20264;-92
2023/01/02 05:03:18;;;;;;;8.68;2.40;;;;;;;;;;5005805;28;20264;-93
2023/01/02 05:05:46;;;;;;;4.85;2.05;;;;;;;;;;5010742;28;20244;-93
2023/01/02 05:08:13;;;;;;;6.55;2.38;;;;;;;;;;5015502;28;20198;-93
2023/01/02 05:10:40;;;;;;;9.15;2.50;;;;;;;;;;5012524;28;20282;-93
2023/01/02 05:13:08;;;;;;;8.93;2.85;;;;;;;;;;5010232;28;20221;-93
2023/01/02 05:15:35;;;;;;;5.25;2.10;;;;;;;;;;5016866;28;20244;-92
2023/01/02 05:18:04;;;;;;;12.98;2.65;;;;;;;;;;5012333;28;20208;-93
2023/01/02 05:20:31;;;;;;;7.43;2.47;;;;;;;;;;5007701;28;20228;-93
2023/01/02 05:25:43;;;;;;;8.30;2.42;;;;;;;;;;5010475;28;20215;-93
2023/01/02 05:28:10;;;;;;;8.77;2.20;;;;;;;;;;5010763;28;20192;-95
2023/01/02 05:30:38;;;;;;;7.80;2.47;;;;;;;;;;5007307;28;20247;-92
2023/01/02 05:33:07;;;;;;;6.03;2.70;;;;;;;;;;5009805;28;20254;-93
2023/01/02 05:35:34;;;;;;;8.63;2.40;;;;;;;;;;5011568;28;20236;-94
2023/01/02 05:38:02;;;;;;;9.30;2.40;;;;;;;;;;5013909;28;20284;-93
2023/01/02 05:40:29;;;;;;;11.63;2.90;;;;;;;;;;5006560;28;20232;-94
2023/01/02 05:42:56;;;;;;;12.73;2.33;;;;;;;;;;5015166;28;20235;-94
2023/01/02 05:45:23;;;;;;;5.97;2.22;;;;;;;;;;5014463;28;20221;-93
2023/01/02 05:47:51;;;;;;;8.00;2.22;;;;;;;;;;5012323;28;20224;-94
2023/01/02 05:50:19;;;;;;;5.72;2.28;;;;;;;;;;5014154;28;20216;-93
2023/01/02 05:52:47;;;;;;;10.45;2.83;;;;;;;;;;5014661;28;20255;-93
2023/01/02 05:55:14;;;;;;;9.68;2.60;;;;;;;;;;5012277;28;20193;-92
2023/01/02 05:57:41;;;;;;;16.30;3.10;;;;;;;;;;5014741;28;20232;-93
2023/01/02 06:00:09;;;;;;;9.48;2.58;;;;;;;;;;5007886;28;20248;-93
2023/01/02 06:02:36;;;;;;;12.55;2.85;;;;;;;;;;5005799;28;20263;-94
2023/01/02 06:05:04;;;;;;;8.60;2.78;;;;;;;;;;5012942;28;20204;-93
2023/01/02 06:07:33;;;;;;;11.77;2.65;;;;;;;;;;5009017;28;20240;-93
2023/01/02 06:10:00;;;;;;;8.60;2.30;;;;;;;;;;5014209;28;20224;-92
2023/01/02 06:12:27;;;;;;;6.90;2.10;;;;;;;;;;5009114;28;20310;-93
2023/01/02 06:14:55;;;;;;;10.20;2.47;;;;;;;;;;5012052;28;20217;-93
2023/01/02 06:17:22;;;;;;;9.13;2.78;;;;;;;;;;5008553;28;20225;-93
2023/01/02 06:19:49;;;;;;;8.75;2.40;;;;;;;;;;5011274;28;20243;-94
2023/01/02 06:22:17;;;;;;;8.80;2.97;;;;;;;;;;5017613;28;20306;-92
2023/01/02 06:24:45;;;;;;;5.35;2.53;;;;;;;;;;5012864;28;20228;-91
2023/01/02 06:27:13;;;;;;;7.93;2.50;;;;;;;;;;5009626;28;20286;-92
2023/01/02 06:29:40;;;;;;;9.52;2.72;;;;;;;;;;5011807;28;20205;-91
2023/01/02 06:32:07;;;;;;;8.48;2.78;;;;;;;;;;5011647;28;20208;-91
2023/01/02 06:34:35;;;;;;;10.50;2.50;;;;;;;;;;5011464;28;20201;-92
2023/01/02 06:37:02;;;;;;;8.15;3.63;;;;;;;;;;5009276;28;20243;-92
2023/01/02 06:39:29;;;;;;;8.50;2.45;;;;;;;;;;5011405;28;20205;-93
2023/01/02 06:41:58;;;;;;;10.35;2.65;;;;;;;;;;5014232;28;20249;-93
2023/01/02 06:44:25;;;;;;;4.82;2.45;;;;;;;;;;5021260;28;20196;-92
2023/01/02 06:46:53;;;;;;;11.75;2.83;;;;;;;;;;5014997;28;20218;-94
2023/01/02 06:49:20;;;;;;;11.18;2.40;;;;;;;;;;5010922;28;20284;-92
2023/01/02 06:51:47;;;;;;;14.00;2.78;;;;;;;;;;5008395;28;20236;-93
2023/01/02 06:54:15;;;;;;;8.32;2.45;;;;;;;;;;5014685;28;20232;-91
2023/01/02 06:56:42;;;;;;;7.82;2.10;;;;;;;;;;5017063;28;20229;-93
2023/01/02 06:59:11;;;;;;;7.00;2.60;;;;;;;;;;5016365;28;20216;-93
2023/01/02 07:01:39;;;;;;;6.65;2.40;;;;;;;;;;5016587;28;20228;-92
2023/01/02 07:04:06;;;;;;;9.20;2.50;;;;;;;;;;4998475;28;20292;-92
2023/01/02 07:06:35;;;;;;;14.95;2.80;;;;;;;;;;5008264;28;20252;-94
2023/01/02 07:09:02;;;;;;;7.28;2.30;;;;;;;;;;5004247;28;20189;-92
2023/01/02 07:11:30;;;;;;;7.13;2.20;;;;;;;;;;5014689;28;20221;-91
2023/01/02 07:13:57;;;;;;;6.25;2.17;;;;;;;;;;5014442;28;20232;-92
2023/01/02 07:16:26;;;;;;;8.02;2.42;;;;;;;;;;5012113;28;20208;-93
2023/01/02 07:18:54;;;;;;;8.40;2.50;;;;;;;;;;5008548;28;20251;-93
2023/01/02 07:21:21;;;;;;;9.55;2.30;;;;;;;;;;5005761;28;20236;-88
2023/01/02 07:23:48;;;;;;;10.80;2.47;;;;;;;;;;5006519;28;20200;-89
2023/01/02 07:26:15;;;;;;;8.23;2.30;;;;;;;;;;5013069;28;20306;-89
2023/01/02 07:28:43;;;;;;;7.18;2.60;;;;;;;;;;5006844;28;20301;-90
2023/01/02 07:31:12;;;;;;;9.02;2.50;;;;;;;;;;5008272;28;20296;-90
2023/01/02 07:33:41;;;;;;;8.10;2.60;;;;;;;;;;5006779;28;20205;-90
2023/01/02 07:36:11;;;;;;;9.98;2.42;;;;;;;;;;5004772;28;20284;-89
2023/01/02 07:38:38;;;;;;;3.88;1.92;;;;;;;;;;5010814;28;20201;-89
2023/01/02 07:41:05;;;;;;;13.63;2.58;;;;;;;;;;5012530;28;20287;-90
2023/01/02 07:43:33;;;;;;;8.40;2.53;;;;;;;;;;5014601;28;20201;-89
2023/01/02 07:46:03;;;;;;;7.00;2.65;;;;;;;;;;5014621;28;20297;-90
2023/01/02 07:48:30;;;;;;;8.98;2.60;;;;;;;;;;5010055;28;20201;-90
2023/01/02 07:51:01;;;;;;;8.60;2.38;;;;;;;;;;5001320;28;20237;-89
2023/01/02 07:53:29;;;;;;;8.98;3.05;;;;;;;;;;5007182;28;20212;-87
2023/01/02 07:55:56;;;;;;;8.95;2.50;;;;;;;;;;5022616;28;20196;-89
2023/01/02 07:58:24;;;;;;;11.68;2.97;;;;;;;;;;5013423;28;20201;-88
2023/01/02 08:00:52;;;;;;;8.82;2.53;;;;;;;;;;5016287;28;20196;-88
2023/01/02 08:03:20;;;;;;;8.23;2.53;;;;;;;;;;5013731;28;20220;-86
2023/01/02 08:05:47;;;;;;;7.35;2.60;;;;;;;;;;5011713;28;20287;-86
2023/01/02 08:08:16;;;;;;;9.95;2.65;;;;;;;;;;5013403;28;20250;-85
2023/01/02 08:10:43;;;;;;;8.80;2.40;;;;;;;;;;5008902;28;20224;-89
2023/01/02 08:13:10;;;;;;;7.95;2.58;;;;;;;;;;5008912;28;20201;-87
2023/01/02 08:15:38;;;;;;;8.00;2.80;;;;;;;;;;4998379;28;20312;-87
2023/01/02 08:18:05;;;;;;;10.05;2.92;;;;;;;;;;5009146;28;20203;-90
2023/01/02 08:20:32;;;;;;;7.43;2.53;;;;;;;;;;5005271;28;20307;-88
2023/01/02 08:22:59;;;;;;;9.25;2.60;;;;;;;;;;5011777;28;20239;-89
2023/01/02 08:25:28;;;;;;;8.55;2.70;;;;;;;;;;5011703;28;20227;-89
2023/01/02 08:27:55;;;;;;;7.93;2.75;;;;;;;;;;5015941;28;20298;-88
2023/01/02 08:30:23;;;;;;;8.82;3.45;;;;;;;;;;5016237;28;20246;-88
2023/01/02 08:32:50;;;;;;;6.05;2.40;;;;;;;;;;5017626;28;20223;-86
2023/01/02 08:35:17;;;;;;;6.93;2.47;;;;;;;;;;5007738;28;20193;-92
2023/01/02 08:37:44;;;;;;;7.97;2.97;;;;;;;;;;5003437;28;20216;-87
2023/01/02 08:40:12;;;;;;;7.10;2.50;;;;;;;;;;5007910;28;20300;-89
2023/01/02 08:42:43;;;;;;;7.82;2.90;;;;;;;;;;5008569;28;20230;-89
2023/01/02 08:45:11;;;;;;;8.63;2.75;;;;;;;;;;5017619;28;20260;-90
2023/01/02 08:47:47;;;;;;;9.57;2.47;;;;;;;;;;5010931;28;20308;-93
2023/01/02 08:50:14;;;;;;;8.30;2.87;;;;;;;;;;5005807;28;20284;-92
2023/01/02 08:52:41;;;;;;;7.50;2.38;;;;;;;;;;5017790;28;20295;-94
2023/01/02 08:55:09;;;;;;;12.32;4.43;;;;;;;;;;5005841;28;20228;-92
2023/01/02 08:57:37;;;;;;;9.02;3.50;;;;;;;;;;5006247;28;20194;-93
2023/01/02 09:00:06;;;;;;;6.43;2.88;;;;;;;;;;5015018;28;20197;-89
2023/01/02 09:02:35;;;;;;;11.90;5.95;;;;;;;;;;5019444;28;20235;-94
2023/01/02 09:05:02;;;;;;;8.82;2.90;;;;;;;;;;5015559;28;20231;-95
2023/01/02 09:07:31;;;;;;;9.60;3.00;;;;;;;;;;5001962;28;20217;-95
2023/01/02 09:09:58;;;;;;;5.18;2.70;;;;;;;;;;5005767;28;20252;-96
2023/01/02 09:12:25;;;;;;;6.97;2.70;;;;;;;;;;5010430;28;20267;-96
2023/01/02 09:14:53;;;;;;;7.10;2.53;;;;;;;;;;5011899;28;20292;-92
2023/01/02 09:17:22;;;;;;;6.60;3.33;;;;;;;;;;5005718;28;20249;-95
2023/01/02 09:19:50;;;;;;;8.48;3.03;;;;;;;;;;5017300;28;20205;-93
2023/01/02 09:22:21;;;;;;;8.80;3.42;;;;;;;;;;5014331;28;20201;-94
2023/01/02 09:24:48;;;;;;;6.95;3.17;;;;;;;;;;5019762;28;20235;-95
2023/01/02 09:27:15;;;;;;;6.22;2.72;;;;;;;;;;5017028;28;20243;-96
2023/01/02 09:29:43;;;;;;;6.67;2.67;;;;;;;;;;5004039;28;20229;-96
2023/01/02 09:32:10;;;;;;;9.77;3.95;;;;;;;;;;5012749;28;20298;-93
2023/01/02 09:34:39;;;;;;;8.68;3.70;;;;;;;;;;5011779;28;20227;-95
2023/01/02 09:37:06;;;;;;;8.37;3.30;;;;;;;;;;5014748;28;20235;-95
2023/01/02 09:39:33;;;;;;;6.50;3.23;;;;;;;;;;5014959;28;20208;-96
2023/01/02 09:42:03;;;;;;;6.53;3.15;;;;;;;;;;5011578;28;20193;-93
2023/01/02 09:44:34;;;;;;;10.63;3.35;;;;;;;;;;5013618;28;20192;-90
2023/01/02 09:47:04;;;;;;;6.53;2.93;;;;;;;;;;5000481;28;20224;-90
2023/01/02 09:49:33;;;;;;;7.95;2.90;;;;;;;;;;5007224;28;20285;-94
2023/01/02 09:52:02;;;;;;;7.70;2.80;;;;;;;;;;5012344;28;20229;-91
2023/01/02 09:54:30;;;;;;;9.90;3.47;;;;;;;;;;5016026;28;20289;-93
2023/01/02 09:57:16;;;;;;;8.87;3.10;;;;;;;;;;5001486;28;20202;-92
2023/01/02 09:59:47;;;;;;;9.15;3.17;;;;;;;;;;5007502;28;20352;-86
2023/01/02 10:02:19;;;;;;;7.60;2.83;;;;;;;;;;5007766;28;20201;-90
2023/01/02 10:04:54;;;;;;;11.40;3.22;;;;;;;;;;4998877;28;20332;-94
2023/01/02 10:07:27;;;;;;;10.30;3.17;;;;;;;;;;5005558;28;20255;-91
2023/01/02 10:09:58;;;;;;;7.45;3.33;;;;;;;;;;5006316;28;20216;-93
2023/01/02 10:12:28;;;;;;;9.93;3.20;;;;;;;;;;5002584;28;20217;-93
2023/01/02 10:14:57;;;;;;;6.43;3.20;;;;;;;;;;5010674;28;20211;-93
2023/01/02 10:17:26;;;;;;;8.60;2.77;;;;;;;;;;5004712;28;20201;-91
2023/01/02 10:19:55;;;;;;;6.68;3.20;;;;;;;;;;5016846;28;20232;-92
2023/01/02 10:22:29;;;;;;;6.50;2.93;;;;;;;;;;5014793;28;20276;-92
2023/01/02 10:24:58;;;;;;;8.07;3.20;;;;;;;;;;5014219;28;20240;-91
2023/01/02 10:27:29;;;;;;;8.57;3.20;;;;;;;;;;5006424;28;20214;-92
2023/01/02 10:30:03;;;;;;;8.27;3.10;;;;;;;;;;5001423;28;20297;-93
2023/01/02 10:32:32;;;;;;;8.67;3.10;;;;;;;;;;5010551;28;20279;-92
2023/01/02 10:35:04;;;;;;;7.80;3.40;;;;;;;;;;5008634;28;20262;-93
2023/01/02 10:37:34;;;;;;;9.37;3.20;;;;;;;;;;5006871;28;20232;-92
2023/01/02 10:40:01;;;;;;;7.28;3.10;;;;;;;;;;5008849;28;20288;-94
2023/01/02 10:42:28;;;;;;;7.80;3.13;;;;;;;;;;5021179;28;20204;-93
2023/01/02 10:45:13;;;;;;;8.17;3.10;;;;;;;;;;5015151;28;20215;-93
2023/01/02 10:47:40;;;;;;;5.87;2.63;;;;;;;;;;5011680;28;20223;-94
2023/01/02 10:50:11;;;;;;;7.47;3.25;;;;;;;;;;5011841;28;20245;-93
2023/01/02 10:52:45;;;;;;;8.30;3.13;;;;;;;;;;5022040;28;20207;-92
2023/01/02 10:55:12;;;;;;;7.47;2.77;;;;;;;;;;5009132;28;20204;-91
2023/01/02 10:57:49;;;;;;;6.27;2.67;;;;;;;;;;5011303;28;20235;-94
2023/01/02 11:00:26;;;;;;;6.53;2.95;;;;;;;;;;5010564;28;20197;-91
2023/01/02 11:02:54;;;;;;;8.30;3.13;;;;;;;;;;5014312;28;20288;-93
2023/01/02 11:05:22;;;;;;;7.63;3.17;;;;;;;;;;5008570;28;20197;-91
2023/01/02 11:07:52;;;;;;;6.45;2.97;;;;;;;;;;5013703;28;20212;-86
2023/01/02 11:10:24;;;;;;;8.13;3.90;;;;;;;;;;5021361;28;20197;-88
2023/01/02 11:12:51;;;;;;;6.27;3.50;;;;;;;;;;5010111;28;20260;-89
2023/01/02 11:15:24;;;;;;;7.63;3.67;;;;;;;;;;5015898;28;20200;-90
2023/01/02 11:17:54;;;;;;;4.17;2.80;;;;;;;;;;5016474;28;20205;-94
2023/01/02 11:20:25;;;;;;;5.50;2.17;;;;;;;;;;5018879;28;20209;-89
2023/01/02 11:22:55;;;;;;;3.83;1.97;;;;;;;;;;5003575;28;20225;-88
2023/01/02 11:25:24;;;;;;;5.53;2.37;;;;;;;;;;5000500;28;20203;-86
2023/01/02 11:27:51;;;;;;;3.20;2.73;;;;;;;;;;5011904;28;20224;-84
2023/01/02 11:30:30;;;;;;;3.13;2.33;;;;;;;;;;5011498;28;20247;-87
2023/01/02 11:33:07;;;;;;;9.75;7.43;;;;;;;;;;5009428;28;20196;-87
2023/01/02 11:35:37;;;;;;;7.33;2.17;;;;;;;;;;5002006;28;20236;-91
2023/01/02 11:38:12;;;;;;;2.33;1.97;;;;;;;;;;5013923;28;20201;-93
2023/01/02 11:40:51;;;;;;;3.40;1.93;;;;;;;;;;5009899;28;20273;-90
2023/01/02 11:46:08;;;;;;;3.60;2.20;;;;;;;;;;5010381;28;20196;-90
2023/01/02 11:48:36;;;;;;;2.97;2.20;;;;;;;;;;5006775;28;20229;-91
2023/01/02 11:51:04;;;;;;;4.10;1.97;;;;;;;;;;5018335;28;20207;-90
2023/01/02 11:53:37;;;;;;;3.95;2.20;;;;;;;;;;5006572;28;20315;-90
2023/01/02 11:56:08;;;;;;;3.83;2.33;;;;;;;;;;5026603;28;20257;-90
2023/01/02 11:58:38;;;;;;;3.33;2.00;;;;;;;;;;5016653;28;20292;-90
2023/01/02 12:01:06;;;;;;;4.20;2.08;;;;;;;;;;5012800;28;20201;-91
2023/01/02 12:03:33;;;;;;;3.63;1.80;;;;;;;;;;5012200;28;20206;-91
2023/01/02 12:06:07;;;;;;;4.03;1.70;;;;;;;;;;5014909;28;20209;-90
2023/01/02 12:08:42;;;;;;;4.13;1.70;;;;;;;;;;5009596;28;20227;-90
2023/01/02 12:11:15;;;;;;;7.73;1.70;;;;;;;;;;5010801;28;20295;-91
2023/01/02 12:13:53;;;;;;;2.80;1.57;;;;;;;;;;5009313;28;20287;-90
2023/01/02 12:16:25;;;;;;;2.13;1.40;;;;;;;;;;5005032;28;20201;-91
2023/01/02 12:19:02;;;;;;;2.73;2.03;;;;;;;;;;5005408;28;20296;-91
2023/01/02 12:21:34;;;;;;;1.87;1.77;;;;;;;;;;5014698;28;20283;-91
2023/01/02 12:24:14;;;;;;;3.43;1.73;;;;;;;;;;5007333;28;20194;-91
2023/01/02 12:26:44;;;;;;;2.13;1.50;;;;;;;;;;5015248;28;20288;-91
2023/01/02 12:29:26;;;;;;;2.10;1.47;;;;;;;;;;5009892;28;20221;-91
2023/01/02 12:32:03;;;;;;;2.70;1.40;;;;;;;;;;5018231;28;20225;-90
2023/01/02 12:34:46;;;;;;;1.73;1.47;;;;;;;;;;5022772;28;20280;-92
2023/01/02 12:37:19;;;;;;;2.07;1.30;;;;;;;;;;5009902;28;20207;-91
2023/01/02 12:40:05;;;;;;;2.57;1.60;;;;;;;;;;5021251;28;20208;-91
2023/01/02 12:42:43;;;;;;;1.93;1.30;;;;;;;;;;5016016;28;20209;-92
2023/01/02 12:45:14;;;;;;;1.83;1.30;;;;;;;;;;5012876;28;20200;-91
2023/01/02 12:47:51;;;;;;;3.33;1.80;;;;;;;;;;5013272;28;20312;-91
2023/01/02 12:50:24;;;;;;;2.93;1.87;;;;;;;;;;5008317;28;20284;-91
2023/01/02 12:52:58;;;;;;;1.80;1.70;;;;;;;;;;5010795;28;20216;-91
2023/01/02 12:55:32;;;;;;;2.37;1.80;;;;;;;;;;5006589;28;20196;-91
2023/01/02 12:58:03;;;;;;;3.80;1.43;;;;;;;;;;5007295;28;20299;-91
2023/01/02 13:00:47;;;;;;;3.27;1.77;;;;;;;;;;5013916;28;20201;-91
2023/01/02 13:03:24;;;;;;;2.03;1.70;;;;;;;;;;5005525;28;20195;-91
2023/01/02 13:05:54;;;;;;;3.30;2.60;;;;;;;;;;5013238;28;20315;-91
2023/01/02 13:08:24;;;;;;;2.00;1.80;;;;;;;;;;5013518;28;20264;-91
2023/01/02 13:10:53;;;;;;;3.90;1.80;;;;;;;;;;5009716;28;20259;-91
2023/01/02 13:13:23;;;;;;;1.70;1.60;;;;;;;;;;5013345;28;20296;-91
2023/01/02 13:15:51;;;;;;;2.43;2.23;;;;;;;;;;5007306;28;20288;-92
2023/01/02 13:18:21;;;;;;;2.30;2.20;;;;;;;;;;5015011;28;20288;-91
2023/01/02 13:20:51;;;;;;;2.80;2.50;;;;;;;;;;5018837;28;20205;-92
2023/01/02 13:23:29;;;;;;;4.00;2.10;;;;;;;;;;5009054;28;20209;-91
2023/01/02 13:26:00;;;;;;;4.50;2.10;;;;;;;;;;5012125;28;20208;-91
2023/01/02 13:28:27;;;;;;;3.47;2.00;;;;;;;;;;5010402;28;20248;-91
2023/01/02 13:31:04;;;;;;;1.90;1.70;;;;;;;;;;5012585;28;20213;-90
2023/01/02 13:33:34;;;;;;;2.73;1.90;;;;;;;;;;5000391;28;20198;-91
2023/01/02 13:36:02;;;;;;;2.07;1.87;;;;;;;;;;5013246;28;20260;-90
2023/01/02 13:38:31;;;;;;;2.13;1.40;;;;;;;;;;4997611;28;20307;-91
2023/01/02 13:41:00;;;;;;;1.97;1.60;;;;;;;;;;5016103;28;20204;-90
2023/01/02 13:43:30;;;;;;;4.73;2.40;;;;;;;;;;5004996;28;20231;-89
2023/01/02 13:45:59;;;;;;;4.70;3.20;;;;;;;;;;5008286;28;20291;-92
2023/01/02 13:48:31;;;;;;;1.83;1.57;;;;;;;;;;5005841;28;20217;-86
2023/01/02 13:50:59;;;;;;;5.80;3.33;;;;;;;;;;5011562;28;20220;-86
2023/01/02 13:53:36;;;;;;;5.60;3.60;;;;;;;;;;5006776;28;20197;-88
2023/01/02 13:56:07;;;;;;;4.00;3.10;;;;;;;;;;5002620;28;20250;-89
2023/01/02 13:58:39;;;;;;;3.23;2.73;;;;;;;;;;5003492;28;20216;-89
2023/01/02 14:01:26;;;;;;;2.70;2.20;;;;;;;;;;5001356;28;20201;-88
2023/01/02 14:04:26;;;;;;;1.80;1.70;;;;;;;;;;5006068;28;20228;-88
2023/01/02 14:06:53;;;;;;;1.67;1.50;;;;;;;;;;5006537;28;20200;-89
2023/01/02 14:09:21;;;;;;;1.43;1.20;;;;;;;;;;5006785;28;20224;-88
2023/01/02 14:11:50;;;;;;;1.23;1.13;;;;;;;;;;5006451;28;20312;-88
2023/01/02 14:14:22;;;;;;;1.30;1.20;;;;;;;;;;5000409;28;20208;-88
2023/01/02 14:16:54;;;;;;;1.63;1.20;;;;;;;;;;5005369;28;20276;-88
2023/01/02 14:19:23;;;;;;;1.47;1.10;;;;;;;;;;5011657;28;20264;-88
2023/01/02 14:22:10;;;;;;;1.90;1.40;;;;;;;;;;5012970;28;20239;-88
2023/01/02 14:24:39;;;;;;;1.00;1.00;;;;;;;;;;5011560;28;20304;-87
2023/01/02 14:27:18;;;;;;;1.57;0.90;;;;;;;;;;5015665;28;20201;-83
2023/01/02 14:29:47;;;;;;;0.90;0.90;;;;;;;;;;5016705;28;20307;-85
2023/01/02 14:32:18;;;;;;;0.80;0.80;;;;;;;;;;5006558;28;20275;-86
2023/01/02 14:34:47;;;;;;;1.00;0.90;;;;;;;;;;5003616;28;20197;-86
2023/01/02 14:37:26;;;;;;;0.90;0.90;;;;;;;;;;5001228;28;20293;-88
2023/01/02 14:39:54;;;;;;;1.90;1.00;;;;;;;;;;5013957;28;20200;-84
2023/01/02 14:45:18;;;;;;;1.13;0.93;;;;;;;;;;5007426;28;20208;-86
2023/01/02 14:47:48;;;;;;;1.67;1.20;;;;;;;;;;5010471;28;20274;-85
2023/01/02 14:50:16;;;;;;;1.13;1.00;;;;;;;;;;5010155;28;20232;-92
2023/01/02 14:52:46;;;;;;;1.50;1.07;;;;;;;;;;5008756;28;20211;-87
2023/01/02 14:55:15;;;;;;;1.60;0.90;;;;;;;;;;5004055;28;20272;-86
2023/01/02 14:57:47;;;;;;;1.03;0.80;;;;;;;;;;5003381;28;20257;-87
2023/01/02 15:00:19;;;;;;;1.87;0.80;;;;;;;;;;5007483;28;20217;-87
2023/01/02 15:02:49;;;;;;;0.90;0.70;;;;;;;;;;5008864;28;20236;-87
2023/01/02 15:05:18;;;;;;;1.73;0.90;;;;;;;;;;5012505;28;20205;-90